createdAt,value
2019-06-26T00:00:42.934Z,62.15
2019-06-26T00:03:13.524Z,59.14
2019-06-26T00:05:44.390Z,58.70
2019-06-26T00:08:14.990Z,59.86
2019-06-26T00:10:45.649Z,61.46
2019-06-26T00:13:25.581Z,64.98
2019-06-26T00:15:48.939Z,63.98
2019-06-26T00:18:19.509Z,62.56
2019-06-26T00:20:50.091Z,61.50
2019-06-26T00:23:20.666Z,60.60
2019-06-26T00:25:51.256Z,62.70
2019-06-26T00:28:21.848Z,60.98
2019-06-26T00:30:52.457Z,61.34
2019-06-26T00:33:24.301Z,63.68
2019-06-26T00:35:54.897Z,63.92
2019-06-26T00:38:25.479Z,64.08
2019-06-26T00:40:56.129Z,64.53
2019-06-26T00:43:41.600Z,64.46
2019-06-26T00:45:59.180Z,65.00
2019-06-26T00:48:29.758Z,66.07
2019-06-26T00:51:00.354Z,66.47
2019-06-26T00:53:30.932Z,64.76
2019-06-26T00:56:01.526Z,67.24
2019-06-26T00:58:32.269Z,66.67
2019-06-26T01:01:02.873Z,67.15
2019-06-26T01:03:33.444Z,63.68
2019-06-26T01:06:04.354Z,66.25
2019-06-26T01:08:34.950Z,66.67
2019-06-26T01:11:05.817Z,66.79
2019-06-26T01:13:36.402Z,66.75
2019-06-26T01:16:06.973Z,63.35
2019-06-26T01:18:37.863Z,64.08
2019-06-26T01:21:08.548Z,65.39
2019-06-26T01:23:39.129Z,64.46
2019-06-26T01:26:09.710Z,62.93
2019-06-26T01:28:40.296Z,65.81
2019-06-26T01:31:10.867Z,66.01
2019-06-26T01:33:41.455Z,66.20
2019-06-26T01:36:12.033Z,64.52
2019-06-26T01:38:42.625Z,65.82
2019-06-26T01:41:13.237Z,66.58
2019-06-26T01:43:43.830Z,66.16
2019-06-26T01:46:14.397Z,65.44
2019-06-26T01:48:45.003Z,67.88
2019-06-26T01:51:15.608Z,65.88
2019-06-26T01:53:46.218Z,63.49
2019-06-26T01:56:16.810Z,61.73
2019-06-26T01:58:47.467Z,64.49
2019-06-26T02:01:18.072Z,65.34
2019-06-26T02:03:48.661Z,66.79
2019-06-26T02:06:19.241Z,65.72
2019-06-26T02:08:49.822Z,67.62
2019-06-26T02:11:20.461Z,67.07
2019-06-26T02:13:51.035Z,68.57
2019-06-26T02:16:21.609Z,68.74
2019-06-26T02:18:56.026Z,68.74
2019-06-26T02:21:26.942Z,68.12
2019-06-26T02:23:57.736Z,68.99
2019-06-26T02:26:28.309Z,68.92
2019-06-26T02:28:58.912Z,68.59
2019-06-26T02:31:29.755Z,67.27
2019-06-26T02:34:00.685Z,65.55
2019-06-26T02:36:31.287Z,65.46
2019-06-26T02:39:02.163Z,63.43
2019-06-26T02:41:32.803Z,63.69
2019-06-26T02:44:03.402Z,64.35
2019-06-26T02:46:34.029Z,67.59
2019-06-26T02:49:04.705Z,69.40
2019-06-26T02:51:35.287Z,70.03
2019-06-26T02:54:06.258Z,69.01
2019-06-26T02:56:37.376Z,68.44
2019-06-26T02:59:08.413Z,69.13
2019-06-26T03:01:39.055Z,67.34
2019-06-26T03:04:09.786Z,66.28
2019-06-26T03:06:40.433Z,68.08
2019-06-26T03:09:11.098Z,68.73
2019-06-26T03:11:41.777Z,66.88
2019-06-26T03:14:12.510Z,64.76
2019-06-26T03:16:43.177Z,64.06
2019-06-26T03:19:13.848Z,66.44
2019-06-26T03:21:44.485Z,67.11
2019-06-26T03:24:15.137Z,68.21
2019-06-26T03:26:45.816Z,68.85
2019-06-26T03:29:16.452Z,69.07
2019-06-26T03:31:47.197Z,70.50
2019-06-26T03:34:17.778Z,69.01
2019-06-26T03:36:48.463Z,68.96
2019-06-26T03:39:19.093Z,66.16
2019-06-26T03:41:49.721Z,65.85
2019-06-26T03:44:20.407Z,67.69
2019-06-26T03:46:51.139Z,69.88
2019-06-26T03:49:21.822Z,69.44
2019-06-26T03:51:52.458Z,68.79
2019-06-26T03:54:23.111Z,66.09
2019-06-26T03:56:54.102Z,64.63
2019-06-26T03:59:24.780Z,65.71
2019-06-26T04:01:55.460Z,66.08
2019-06-26T04:04:26.429Z,67.38
2019-06-26T04:06:57.059Z,65.52
2019-06-26T04:09:27.692Z,65.08
2019-06-26T04:11:58.643Z,64.56
2019-06-26T04:14:29.245Z,65.12
2019-06-26T04:17:00.327Z,64.56
2019-06-26T04:19:31.027Z,69.46
2019-06-26T04:22:01.952Z,67.04
2019-06-26T04:24:32.633Z,65.93
2019-06-26T04:27:03.308Z,67.10
2019-06-26T04:29:33.925Z,68.80
2019-06-26T04:32:04.809Z,65.07
2019-06-26T04:34:35.470Z,65.45
2019-06-26T04:37:06.139Z,64.49
2019-06-26T04:39:36.770Z,68.36
2019-06-26T04:42:07.804Z,71.51
2019-06-26T04:44:38.511Z,69.58
2019-06-26T04:47:09.177Z,70.42
2019-06-26T04:49:39.845Z,68.85
2019-06-26T04:52:10.534Z,70.18
2019-06-26T04:54:41.184Z,72.82
2019-06-26T04:57:11.924Z,71.82
2019-06-26T04:59:42.695Z,67.79
2019-06-26T05:02:13.369Z,69.64
2019-06-26T05:04:44.044Z,71.17
2019-06-26T05:07:14.640Z,68.80
2019-06-26T05:09:45.209Z,67.78
2019-06-26T05:12:15.845Z,70.82
2019-06-26T05:14:46.419Z,69.19
2019-06-26T05:17:17.282Z,69.38
2019-06-26T05:19:47.864Z,67.83
2019-06-26T05:22:18.448Z,67.26
2019-06-26T05:24:49.371Z,71.65
2019-06-26T05:27:19.944Z,71.08
2019-06-26T05:29:50.499Z,70.35
2019-06-26T05:32:21.121Z,68.21
2019-06-26T05:34:51.705Z,69.36
2019-06-26T05:37:22.304Z,68.54
2019-06-26T05:39:54.821Z,66.69
2019-06-26T05:42:25.251Z,68.87
2019-06-26T05:44:56.118Z,69.33
2019-06-26T05:47:26.709Z,70.14
2019-06-26T05:49:57.307Z,70.80
2019-06-26T05:52:27.890Z,67.97
2019-06-26T05:54:58.492Z,68.30
2019-06-26T05:57:29.089Z,69.50
2019-06-26T05:59:59.647Z,70.28
2019-06-26T06:02:30.236Z,67.58
2019-06-26T06:05:00.871Z,66.95
2019-06-26T06:07:31.491Z,70.44
2019-06-26T06:10:02.233Z,65.88
2019-06-26T06:12:32.890Z,70.29
2019-06-26T06:15:03.503Z,67.82
2019-06-26T06:17:34.081Z,70.51
2019-06-26T06:20:05.171Z,69.00
2019-06-26T06:22:35.759Z,66.08
2019-06-26T06:25:06.910Z,65.96
2019-06-26T06:27:37.518Z,65.94
2019-06-26T06:30:08.298Z,65.99
2019-06-26T06:32:38.885Z,65.82
2019-06-26T06:35:11.603Z,64.89
2019-06-26T06:37:42.185Z,65.81
2019-06-26T06:40:13.253Z,66.81
2019-06-26T06:42:43.838Z,67.83
2019-06-26T06:45:14.569Z,69.75
2019-06-26T06:47:45.248Z,68.35
2019-06-26T06:50:16.102Z,67.57
2019-06-26T06:52:46.713Z,66.62
2019-06-26T06:55:17.281Z,68.36
2019-06-26T06:57:47.891Z,64.76
2019-06-26T07:00:19.163Z,65.48
2019-06-26T07:02:49.761Z,65.11
2019-06-26T07:05:20.318Z,66.77
2019-06-26T07:07:50.914Z,64.70
2019-06-26T07:10:21.474Z,65.67
2019-06-26T07:12:52.062Z,64.90
2019-06-26T07:15:24.336Z,67.30
2019-06-26T07:17:55.162Z,64.52
2019-06-26T07:20:25.855Z,64.67
2019-06-26T07:22:56.448Z,66.37
2019-06-26T07:25:27.030Z,66.27
2019-06-26T07:28:01.560Z,65.29
2019-06-26T07:30:30.011Z,65.99
2019-06-26T07:33:00.636Z,66.98
2019-06-26T07:35:31.211Z,66.58
2019-06-26T07:38:01.940Z,66.73
2019-06-26T07:40:32.535Z,63.85
2019-06-26T07:43:03.106Z,63.77
2019-06-26T07:45:33.775Z,62.54
2019-06-26T07:48:04.424Z,61.98
2019-06-26T07:50:35.020Z,64.24
2019-06-26T07:53:06.180Z,63.67
2019-06-26T07:55:40.390Z,61.53
2019-06-26T07:58:09.045Z,61.88
2019-06-26T08:00:39.948Z,62.54
2019-06-26T08:03:10.514Z,62.05
2019-06-26T08:05:43.156Z,63.39
2019-06-26T08:08:14.904Z,61.81
2019-06-26T08:10:45.769Z,62.41
2019-06-26T08:13:16.405Z,60.95
2019-06-26T08:15:46.989Z,62.43
2019-06-26T08:18:17.560Z,62.26
2019-06-26T08:21:00.752Z,60.90
2019-06-26T08:23:20.470Z,61.51
2019-06-26T08:25:51.077Z,60.67
2019-06-26T08:28:21.646Z,59.46
2019-06-26T08:30:52.295Z,59.39
2019-06-26T08:33:23.456Z,58.52
2019-06-26T08:35:54.051Z,58.35
2019-06-26T08:38:24.601Z,59.39
2019-06-26T08:40:55.193Z,58.31
2019-06-26T08:43:25.756Z,57.90
2019-06-26T08:54:04.842Z,56.24
2019-06-26T08:56:35.688Z,55.59
2019-06-26T08:59:06.446Z,54.81
2019-06-26T09:01:37.117Z,54.86
2019-06-26T09:04:08.932Z,54.46
2019-06-26T09:06:39.879Z,53.79
2019-06-26T09:09:11.299Z,53.21
2019-06-26T09:11:41.968Z,52.69
2019-06-26T09:14:12.657Z,53.27
2019-06-26T09:16:43.355Z,52.57
2019-06-26T09:19:14.066Z,53.80
2019-06-26T09:21:44.761Z,53.09
2019-06-26T09:24:15.531Z,53.21
2019-06-26T09:26:46.315Z,53.66
2019-06-26T09:29:16.953Z,53.97
2019-06-26T09:31:47.662Z,52.60
2019-06-26T09:34:18.339Z,52.30
2019-06-26T09:36:48.995Z,52.22
2019-06-26T09:39:19.710Z,53.69
2019-06-26T09:41:50.441Z,52.43
2019-06-26T09:44:21.067Z,51.82
2019-06-26T09:46:51.779Z,51.91
2019-06-26T09:49:22.728Z,50.52
2019-06-26T09:51:53.436Z,51.63
2019-06-26T09:54:24.113Z,50.53
2019-06-26T09:56:54.744Z,51.34
2019-06-26T09:59:25.592Z,52.96
2019-06-26T10:01:56.309Z,51.84
2019-06-26T10:04:26.918Z,50.97
2019-06-26T10:06:57.808Z,49.84
2019-06-26T10:09:28.928Z,49.70
2019-06-26T10:11:59.638Z,47.74
2019-06-26T10:14:46.661Z,49.52
2019-06-26T10:17:02.923Z,48.54
2019-06-26T10:19:33.655Z,46.46
2019-06-26T10:22:04.285Z,46.97
2019-06-26T10:24:35.565Z,47.27
2019-06-26T10:27:06.263Z,46.35
2019-06-26T10:29:36.932Z,47.79
2019-06-26T10:32:07.566Z,46.54
2019-06-26T10:34:38.341Z,47.22
2019-06-26T10:37:09.262Z,48.01
2019-06-26T10:45:49.580Z,47.53
2019-06-26T10:47:59.355Z,47.86
2019-06-26T10:50:51.044Z,47.38
2019-06-26T10:58:00.398Z,45.66
2019-06-26T11:01:10.629Z,44.97
2019-06-26T11:03:58.495Z,43.27
2019-06-26T11:06:37.079Z,46.14
2019-06-26T11:09:25.586Z,46.14
2019-06-26T11:15:39.600Z,45.42
2019-06-26T11:18:38.963Z,46.16
2019-06-26T11:21:32.495Z,45.76
2019-06-26T11:24:03.146Z,44.79
2019-06-26T11:26:43.122Z,44.37
2019-06-26T11:29:13.967Z,46.51
2019-06-26T11:31:45.045Z,43.66
2019-06-26T11:34:15.902Z,42.83
2019-06-26T11:37:04.330Z,42.86
2019-06-26T11:39:33.006Z,44.51
2019-06-26T11:42:03.831Z,45.02
2019-06-26T11:44:53.431Z,46.81
2019-06-26T11:47:23.335Z,46.34
2019-06-26T11:50:38.703Z,45.89
2019-06-26T11:54:17.164Z,46.26
2019-06-26T11:56:51.218Z,45.30
2019-06-26T11:59:37.854Z,46.33
2019-06-26T12:06:48.399Z,45.11
2019-06-26T12:09:38.790Z,44.22
2019-06-26T12:12:09.635Z,42.70
2019-06-26T12:19:34.986Z,43.85
2019-06-26T12:32:41.503Z,43.41
2019-06-26T12:35:56.708Z,43.38
2019-06-26T12:59:13.862Z,43.67
2019-06-26T13:02:00.568Z,44.92
2019-06-26T13:06:46.737Z,44.46
2019-06-26T13:17:34.599Z,45.87
2019-06-26T13:20:09.701Z,44.78
2019-06-26T13:22:40.955Z,45.10
2019-06-26T13:25:15.903Z,44.22
2019-06-26T13:27:51.144Z,44.34
2019-06-26T13:30:41.429Z,43.91
2019-06-26T13:33:17.180Z,44.28
2019-06-26T13:35:52.039Z,43.56
2019-06-26T13:38:26.982Z,43.97
2019-06-26T13:40:56.711Z,42.85
2019-06-26T13:43:31.705Z,42.88
2019-06-26T13:46:09.038Z,43.25
2019-06-26T13:48:40.810Z,45.19
2019-06-26T13:51:21.395Z,43.17
2019-06-26T13:54:08.004Z,41.88
2019-06-26T13:56:52.507Z,43.70
2019-06-26T13:59:33.731Z,44.63
2019-06-26T14:02:05.947Z,45.17
2019-06-26T14:04:42.287Z,44.42
2019-06-26T14:07:27.165Z,43.92
2019-06-26T14:10:04.641Z,44.46
2019-06-26T14:12:49.029Z,44.67
2019-06-26T14:15:53.569Z,43.32
2019-06-26T14:18:30.299Z,44.45
2019-06-26T14:21:03.587Z,44.22
2019-06-26T14:23:37.776Z,43.66
2019-06-26T14:26:14.209Z,43.53
2019-06-26T14:28:54.116Z,41.93
2019-06-26T14:31:32.205Z,43.08
2019-06-26T14:34:03.542Z,45.28
2019-06-26T14:36:37.369Z,44.96
2019-06-26T14:39:10.232Z,44.48
2019-06-26T14:41:41.333Z,43.61
2019-06-26T14:44:12.298Z,43.15
2019-06-26T14:46:43.063Z,42.60
2019-06-26T14:49:13.924Z,44.07
2019-06-26T14:51:47.679Z,43.23
2019-06-26T14:54:17.483Z,44.58
2019-06-26T14:56:48.248Z,44.89
2019-06-26T14:59:18.989Z,45.70
2019-06-26T15:01:49.950Z,44.18
2019-06-26T15:04:20.801Z,42.96
2019-06-26T15:06:52.264Z,44.05
2019-06-26T15:09:37.933Z,44.11
2019-06-26T15:12:12.087Z,43.02
2019-06-26T15:14:43.720Z,43.81
2019-06-26T15:17:15.402Z,43.79
2019-06-26T15:19:52.602Z,44.56
2019-06-26T15:22:23.724Z,45.00
2019-06-26T15:24:54.812Z,44.72
2019-06-26T15:27:26.153Z,43.02
2019-06-26T15:30:10.427Z,43.51
2019-06-26T15:32:44.064Z,43.13
2019-06-26T15:35:49.057Z,43.18
2019-06-26T15:38:20.105Z,43.40
2019-06-26T15:40:50.745Z,42.82
2019-06-26T15:43:21.337Z,43.30
2019-06-26T15:46:01.290Z,42.95
2019-06-26T15:48:32.561Z,42.55
2019-06-26T15:51:03.902Z,41.21
2019-06-26T15:53:34.623Z,42.40
2019-06-26T15:56:05.505Z,42.60
2019-06-26T15:58:36.160Z,43.44
2019-06-26T16:01:09.971Z,43.70
2019-06-26T16:03:40.630Z,42.37
2019-06-26T16:06:11.291Z,44.39
2019-06-26T16:08:42.001Z,43.51
2019-06-26T16:11:12.604Z,43.61
2019-06-26T16:13:43.919Z,42.60
2019-06-26T16:16:14.779Z,42.61
2019-06-26T16:18:50.944Z,42.62
2019-06-26T16:21:21.645Z,43.82
2019-06-26T16:23:52.266Z,44.38
2019-06-26T16:26:22.904Z,45.46
2019-06-26T16:28:53.587Z,43.89
2019-06-26T16:31:24.319Z,44.81
2019-06-26T16:33:54.912Z,44.76
2019-06-26T16:36:25.492Z,45.26
2019-06-26T16:38:57.077Z,45.39
2019-06-26T16:41:27.855Z,45.51
2019-06-26T16:44:20.116Z,44.66
2019-06-26T16:46:51.244Z,44.34
2019-06-26T16:49:21.824Z,44.65
2019-06-26T16:51:52.474Z,44.73
2019-06-26T16:54:23.098Z,45.46
2019-06-26T16:56:54.274Z,45.15
2019-06-26T16:59:24.857Z,44.63
2019-06-26T17:01:55.453Z,45.01
2019-06-26T17:04:26.097Z,45.01
2019-06-26T17:06:56.687Z,46.39
2019-06-26T17:09:27.937Z,45.88
2019-06-26T17:11:58.900Z,46.06
2019-06-26T17:14:29.444Z,46.44
2019-06-26T17:17:00.369Z,47.21
2019-06-26T17:19:31.504Z,48.12
2019-06-26T17:22:02.491Z,47.60
2019-06-26T17:24:33.358Z,47.49
2019-06-26T17:27:04.497Z,48.26
2019-06-26T17:29:35.374Z,48.77
2019-06-26T17:32:11.714Z,48.72
2019-06-26T17:34:55.907Z,48.92
2019-06-26T17:37:32.312Z,50.24
2019-06-26T17:40:06.469Z,50.25
2019-06-26T17:42:40.569Z,50.29
2019-06-26T17:45:11.606Z,49.14
2019-06-26T17:47:45.641Z,50.16
2019-06-26T17:50:22.764Z,50.89
2019-06-26T17:52:57.528Z,49.51
2019-06-26T17:55:29.893Z,49.46
2019-06-26T17:58:02.771Z,49.15
2019-06-26T18:00:38.208Z,49.19
2019-06-26T18:03:10.494Z,49.26
2019-06-26T18:05:41.927Z,49.94
2019-06-26T18:08:13.908Z,50.69
2019-06-26T18:10:46.760Z,51.47
2019-06-26T18:13:18.617Z,50.21
2019-06-26T18:15:50.275Z,50.34
2019-06-26T18:18:21.011Z,50.45
2019-06-26T18:20:51.938Z,50.71
2019-06-26T18:23:36.636Z,51.52
2019-06-26T18:26:11.751Z,51.22
2019-06-26T18:33:09.585Z,51.80
2019-06-26T18:36:09.947Z,52.07
2019-06-26T18:38:41.167Z,51.51
2019-06-26T18:41:11.902Z,51.10
2019-06-26T18:43:42.640Z,50.25
2019-06-26T18:46:16.344Z,51.08
2019-06-26T18:48:57.675Z,49.72
2019-06-26T18:51:28.513Z,49.97
2019-06-26T18:54:09.501Z,49.10
2019-06-26T18:56:45.141Z,50.23
2019-06-26T18:59:33.445Z,50.23
2019-06-26T19:02:04.088Z,50.71
2019-06-26T19:04:34.720Z,50.01
2019-06-26T19:07:05.652Z,49.72
2019-06-26T19:09:36.899Z,50.12
2019-06-26T19:12:07.667Z,49.89
2019-06-26T19:14:38.727Z,48.66
2019-06-26T19:17:09.411Z,50.07
2019-06-26T19:19:40.148Z,49.60
2019-06-26T19:22:11.228Z,51.52
2019-06-26T19:24:42.029Z,52.36
2019-06-26T19:27:12.703Z,51.36
2019-06-26T19:29:43.538Z,51.67
2019-06-26T19:32:14.200Z,52.12
2019-06-26T19:34:44.822Z,51.76
2019-06-26T19:37:16.368Z,51.93
2019-06-26T19:39:46.972Z,51.02
2019-06-26T19:42:17.634Z,50.36
2019-06-26T19:44:48.354Z,50.54
2019-06-26T19:47:19.061Z,52.50
2019-06-26T19:49:52.698Z,52.06
2019-06-26T19:52:23.513Z,51.16
2019-06-26T19:54:54.607Z,51.39
2019-06-26T19:57:25.293Z,51.56
2019-06-26T19:59:56.006Z,52.24
2019-06-26T20:02:26.677Z,52.46
2019-06-26T20:04:57.406Z,52.49
2019-06-26T20:07:28.492Z,53.27
2019-06-26T20:10:01.712Z,52.13
2019-06-26T20:12:55.821Z,53.10
2019-06-26T20:15:45.993Z,52.88
2019-06-26T20:18:17.322Z,52.51
2019-06-26T20:21:13.217Z,52.63
2019-06-26T20:24:42.566Z,52.18
2019-06-26T20:26:38.716Z,53.42
2019-06-26T20:29:09.563Z,53.11
2019-06-26T20:31:41.299Z,53.24
2019-06-26T20:34:21.110Z,52.76
2019-06-26T20:36:52.208Z,52.25
2019-06-26T20:39:23.587Z,53.79
2019-06-26T20:41:54.404Z,53.94
2019-06-26T20:44:25.842Z,53.86
2019-06-26T20:46:56.818Z,53.10
2019-06-26T20:49:27.420Z,53.57
2019-06-26T20:51:58.040Z,52.69
2019-06-26T20:54:28.584Z,53.29
2019-06-26T20:56:59.217Z,54.54
2019-06-26T20:59:29.843Z,55.11
2019-06-26T21:02:00.782Z,54.59
2019-06-26T21:04:31.690Z,54.65
2019-06-26T21:07:02.297Z,55.70
2019-06-26T21:09:32.901Z,55.42
2019-06-26T21:12:03.477Z,55.77
2019-06-26T21:14:34.094Z,56.71
2019-06-26T21:17:04.701Z,56.13
2019-06-26T21:19:35.317Z,57.20
2019-06-26T21:22:08.901Z,56.42
2019-06-26T21:24:38.242Z,56.99
2019-06-26T21:27:08.824Z,56.45
2019-06-26T21:29:39.805Z,55.09
2019-06-26T21:32:10.368Z,57.22
2019-06-26T21:34:40.951Z,57.80
2019-06-26T21:37:11.530Z,56.75
2019-06-26T21:39:42.120Z,57.15
2019-06-26T21:42:12.693Z,57.05
2019-06-26T21:44:43.273Z,58.62
2019-06-26T21:47:13.843Z,58.62
2019-06-26T21:49:44.721Z,57.71
2019-06-26T21:52:15.304Z,58.04
2019-06-26T21:54:45.896Z,58.84
2019-06-26T21:57:16.496Z,59.06
2019-06-26T21:59:47.103Z,58.43
2019-06-26T22:02:17.687Z,59.02
2019-06-26T22:04:48.284Z,58.99
2019-06-26T22:07:18.986Z,59.19
2019-06-26T22:09:49.573Z,59.52
2019-06-26T22:12:20.332Z,58.72
2019-06-26T22:14:50.933Z,59.71
2019-06-26T22:17:21.512Z,59.82
2019-06-26T22:19:52.113Z,59.09
2019-06-26T22:22:22.662Z,59.77
2019-06-26T22:24:53.306Z,59.67
2019-06-26T22:27:23.950Z,59.64
2019-06-26T22:29:54.853Z,59.00
2019-06-26T22:32:25.427Z,61.50
2019-06-26T22:34:56.044Z,60.41
2019-06-26T22:37:26.609Z,61.32
2019-06-26T22:39:57.210Z,61.43
2019-06-26T22:42:27.787Z,61.64
2019-06-26T22:44:58.426Z,62.16
2019-06-26T22:47:29.351Z,61.17
2019-06-26T22:50:00.059Z,62.65
2019-06-26T22:52:31.161Z,59.74
2019-06-26T22:55:01.776Z,60.60
2019-06-26T22:57:32.368Z,61.47
2019-06-26T23:00:02.991Z,61.54
2019-06-26T23:02:33.624Z,61.30
2019-06-26T23:05:04.374Z,63.65
2019-06-26T23:07:34.978Z,63.12
2019-06-26T23:10:05.944Z,62.71
2019-06-26T23:12:36.693Z,60.86
2019-06-26T23:15:07.709Z,60.57
2019-06-26T23:17:38.353Z,62.03
2019-06-26T23:20:09.266Z,62.78
2019-06-26T23:22:39.892Z,62.15
2019-06-26T23:25:10.581Z,62.52
2019-06-26T23:27:41.263Z,62.89
2019-06-26T23:30:19.044Z,62.33
2019-06-26T23:32:49.655Z,61.29
2019-06-26T23:35:20.231Z,63.09
2019-06-26T23:37:50.891Z,62.94
2019-06-26T23:40:21.480Z,64.68
2019-06-26T23:42:52.151Z,64.07
2019-06-26T23:45:22.721Z,64.15
2019-06-26T23:47:53.316Z,64.91
2019-06-26T23:50:23.907Z,64.00
2019-06-26T23:52:54.538Z,64.29
2019-06-26T23:55:25.121Z,64.17
2019-06-26T23:57:59.387Z,63.78
